sensor_id;sensor_type;location;lat;lon;timestamp;temperature;humidity
16980;DHT22;42288;52.182;21.156;2024-02-21T00:00:05;5.60;99.90
16980;DHT22;42288;52.182;21.156;2024-02-21T00:02:30;5.60;99.90
16980;DHT22;42288;52.182;21.156;2024-02-21T00:04:56;5.60;99.90
16980;DHT22;42288;52.182;21.156;2024-02-21T00:07:21;5.60;99.90
16980;DHT22;42288;52.182;21.156;2024-02-21T00:09:47;5.70;99.90
16980;DHT22;42288;52.182;21.156;2024-02-21T00:12:13;5.60;99.90
16980;DHT22;42288;52.182;21.156;2024-02-21T00:14:39;5.70;99.90
16980;DHT22;42288;52.182;21.156;2024-02-21T00:17:06;5.60;99.90
16980;DHT22;42288;52.182;21.156;2024-02-21T00:19:31;5.60;99.90
16980;DHT22;42288;52.182;21.156;2024-02-21T00:21:57;5.60;99.90
16980;DHT22;42288;52.182;21.156;2024-02-21T00:24:22;5.60;99.90
16980;DHT22;42288;52.182;21.156;2024-02-21T00:26:48;5.60;99.90
16980;DHT22;42288;52.182;21.156;2024-02-21T00:29:13;5.60;99.90
16980;DHT22;42288;52.182;21.156;2024-02-21T00:31:39;5.60;99.90
16980;DHT22;42288;52.182;21.156;2024-02-21T00:34:04;5.60;99.90
16980;DHT22;42288;52.182;21.156;2024-02-21T00:36:30;5.60;99.90
16980;DHT22;42288;52.182;21.156;2024-02-21T00:38:56;5.60;99.90
16980;DHT22;42288;52.182;21.156;2024-02-21T00:41:21;5.70;99.90
16980;DHT22;42288;52.182;21.156;2024-02-21T00:43:47;5.60;99.90
16980;DHT22;42288;52.182;21.156;2024-02-21T00:46:14;5.60;99.90
16980;DHT22;42288;52.182;21.156;2024-02-21T00:48:39;5.70;99.90
16980;DHT22;42288;52.182;21.156;2024-02-21T00:51:05;5.70;99.90
16980;DHT22;42288;52.182;21.156;2024-02-21T00:53:30;5.80;99.90
16980;DHT22;42288;52.182;21.156;2024-02-21T00:55:56;5.70;99.90
16980;DHT22;42288;52.182;21.156;2024-02-21T00:58:22;5.70;99.90
16980;DHT22;42288;52.182;21.156;2024-02-21T01:00:48;5.70;99.90
16980;DHT22;42288;52.182;21.156;2024-02-21T01:03:13;5.70;99.90
16980;DHT22;42288;52.182;21.156;2024-02-21T01:05:39;5.80;99.90
16980;DHT22;42288;52.182;21.156;2024-02-21T01:08:05;5.80;99.90
16980;DHT22;42288;52.182;21.156;2024-02-21T01:10:30;5.80;99.90
16980;DHT22;42288;52.182;21.156;2024-02-21T01:12:56;5.80;99.90
16980;DHT22;42288;52.182;21.156;2024-02-21T01:15:21;5.70;99.90
16980;DHT22;42288;52.182;21.156;2024-02-21T01:17:47;5.80;99.90
16980;DHT22;42288;52.182;21.156;2024-02-21T01:20:13;5.80;99.90
16980;DHT22;42288;52.182;21.156;2024-02-21T01:22:38;5.70;99.90
16980;DHT22;42288;52.182;21.156;2024-02-21T01:25:04;5.70;99.90
16980;DHT22;42288;52.182;21.156;2024-02-21T01:27:31;5.70;99.90
16980;DHT22;42288;52.182;21.156;2024-02-21T01:29:56;5.70;99.90
16980;DHT22;42288;52.182;21.156;2024-02-21T01:32:22;5.70;99.90
16980;DHT22;42288;52.182;21.156;2024-02-21T01:34:50;5.80;99.90
16980;DHT22;42288;52.182;21.156;2024-02-21T01:37:15;5.80;99.90
16980;DHT22;42288;52.182;21.156;2024-02-21T01:39:41;5.80;99.90
16980;DHT22;42288;52.182;21.156;2024-02-21T01:42:06;5.90;99.90
16980;DHT22;42288;52.182;21.156;2024-02-21T01:44:32;5.80;99.90
16980;DHT22;42288;52.182;21.156;2024-02-21T01:46:58;5.80;99.90
16980;DHT22;42288;52.182;21.156;2024-02-21T01:49:23;5.70;99.90
16980;DHT22;42288;52.182;21.156;2024-02-21T01:51:49;5.80;99.90
16980;DHT22;42288;52.182;21.156;2024-02-21T01:54:16;5.70;99.90
16980;DHT22;42288;52.182;21.156;2024-02-21T01:56:43;5.80;99.90
16980;DHT22;42288;52.182;21.156;2024-02-21T01:59:09;5.80;99.90
16980;DHT22;42288;52.182;21.156;2024-02-21T02:01:35;5.80;99.90
16980;DHT22;42288;52.182;21.156;2024-02-21T02:04:01;5.70;99.90
16980;DHT22;42288;52.182;21.156;2024-02-21T02:06:26;5.80;99.90
16980;DHT22;42288;52.182;21.156;2024-02-21T02:08:53;5.80;99.90
16980;DHT22;42288;52.182;21.156;2024-02-21T02:11:20;5.80;99.90
16980;DHT22;42288;52.182;21.156;2024-02-21T02:13:45;5.80;99.90
16980;DHT22;42288;52.182;21.156;2024-02-21T02:16:11;5.80;99.90
16980;DHT22;42288;52.182;21.156;2024-02-21T02:18:36;5.90;99.90
16980;DHT22;42288;52.182;21.156;2024-02-21T02:21:08;5.80;99.90
16980;DHT22;42288;52.182;21.156;2024-02-21T02:23:35;5.90;99.90
16980;DHT22;42288;52.182;21.156;2024-02-21T02:26:01;5.80;99.90
16980;DHT22;42288;52.182;21.156;2024-02-21T02:28:27;5.70;99.90
16980;DHT22;42288;52.182;21.156;2024-02-21T02:30:53;5.80;99.90
16980;DHT22;42288;52.182;21.156;2024-02-21T02:33:18;5.80;99.90
16980;DHT22;42288;52.182;21.156;2024-02-21T02:35:44;5.80;99.90
16980;DHT22;42288;52.182;21.156;2024-02-21T02:38:10;5.80;99.90
16980;DHT22;42288;52.182;21.156;2024-02-21T02:40:38;5.90;99.90
16980;DHT22;42288;52.182;21.156;2024-02-21T02:43:04;5.90;99.90
16980;DHT22;42288;52.182;21.156;2024-02-21T02:45:30;6.00;99.90
16980;DHT22;42288;52.182;21.156;2024-02-21T02:47:56;6.00;99.90
16980;DHT22;42288;52.182;21.156;2024-02-21T02:50:26;5.90;99.90
16980;DHT22;42288;52.182;21.156;2024-02-21T02:52:52;5.90;99.90
16980;DHT22;42288;52.182;21.156;2024-02-21T02:55:18;6.10;99.90
16980;DHT22;42288;52.182;21.156;2024-02-21T02:57:43;6.00;99.90
16980;DHT22;42288;52.182;21.156;2024-02-21T03:00:10;6.00;99.90
16980;DHT22;42288;52.182;21.156;2024-02-21T03:02:39;6.00;99.90
16980;DHT22;42288;52.182;21.156;2024-02-21T03:05:26;6.00;99.90
16980;DHT22;42288;52.182;21.156;2024-02-21T03:07:51;6.00;99.90
16980;DHT22;42288;52.182;21.156;2024-02-21T03:10:17;6.00;99.90
16980;DHT22;42288;52.182;21.156;2024-02-21T03:12:43;6.00;99.90
16980;DHT22;42288;52.182;21.156;2024-02-21T03:15:08;6.00;99.90
16980;DHT22;42288;52.182;21.156;2024-02-21T03:17:34;5.90;99.90
16980;DHT22;42288;52.182;21.156;2024-02-21T03:20:01;5.80;99.90
16980;DHT22;42288;52.182;21.156;2024-02-21T03:22:31;5.80;99.90
16980;DHT22;42288;52.182;21.156;2024-02-21T03:24:57;5.90;99.90
16980;DHT22;42288;52.182;21.156;2024-02-21T03:27:22;5.90;99.90
16980;DHT22;42288;52.182;21.156;2024-02-21T03:29:48;6.00;99.90
16980;DHT22;42288;52.182;21.156;2024-02-21T03:32:13;5.90;99.90
16980;DHT22;42288;52.182;21.156;2024-02-21T03:34:39;6.00;99.90
16980;DHT22;42288;52.182;21.156;2024-02-21T03:37:05;5.90;99.90
16980;DHT22;42288;52.182;21.156;2024-02-21T03:39:34;6.00;99.90
16980;DHT22;42288;52.182;21.156;2024-02-21T03:41:59;6.00;99.90
16980;DHT22;42288;52.182;21.156;2024-02-21T03:44:30;6.00;99.90
16980;DHT22;42288;52.182;21.156;2024-02-21T03:46:55;6.00;99.90
16980;DHT22;42288;52.182;21.156;2024-02-21T03:49:21;6.00;99.90
16980;DHT22;42288;52.182;21.156;2024-02-21T03:51:47;5.90;99.90
16980;DHT22;42288;52.182;21.156;2024-02-21T03:54:12;5.90;99.90
16980;DHT22;42288;52.182;21.156;2024-02-21T03:56:38;5.80;99.90
16980;DHT22;42288;52.182;21.156;2024-02-21T03:59:08;5.80;99.90
16980;DHT22;42288;52.182;21.156;2024-02-21T04:01:34;5.70;99.90
16980;DHT22;42288;52.182;21.156;2024-02-21T04:04:00;5.60;99.90
16980;DHT22;42288;52.182;21.156;2024-02-21T04:06:26;5.60;99.90
16980;DHT22;42288;52.182;21.156;2024-02-21T04:08:51;5.50;99.90
16980;DHT22;42288;52.182;21.156;2024-02-21T04:11:17;5.50;99.90
16980;DHT22;42288;52.182;21.156;2024-02-21T04:13:44;5.50;99.90
16980;DHT22;42288;52.182;21.156;2024-02-21T04:16:10;5.50;99.90
16980;DHT22;42288;52.182;21.156;2024-02-21T04:18:36;5.50;99.90
16980;DHT22;42288;52.182;21.156;2024-02-21T04:21:01;5.40;99.90
16980;DHT22;42288;52.182;21.156;2024-02-21T04:23:27;5.40;99.90
16980;DHT22;42288;52.182;21.156;2024-02-21T04:25:52;5.40;99.90
16980;DHT22;42288;52.182;21.156;2024-02-21T04:28:18;5.40;99.90
16980;DHT22;42288;52.182;21.156;2024-02-21T04:30:43;5.40;99.90
16980;DHT22;42288;52.182;21.156;2024-02-21T04:33:09;5.40;99.90
16980;DHT22;42288;52.182;21.156;2024-02-21T04:35:36;5.40;99.90
16980;DHT22;42288;52.182;21.156;2024-02-21T04:38:02;5.50;99.90
16980;DHT22;42288;52.182;21.156;2024-02-21T04:40:29;5.50;99.90
16980;DHT22;42288;52.182;21.156;2024-02-21T04:42:54;5.60;99.90
16980;DHT22;42288;52.182;21.156;2024-02-21T04:45:20;5.60;99.90
16980;DHT22;42288;52.182;21.156;2024-02-21T04:47:45;5.70;99.90
16980;DHT22;42288;52.182;21.156;2024-02-21T04:50:11;5.70;99.90
16980;DHT22;42288;52.182;21.156;2024-02-21T04:52:37;5.80;99.90
16980;DHT22;42288;52.182;21.156;2024-02-21T04:55:02;5.90;99.90
16980;DHT22;42288;52.182;21.156;2024-02-21T04:57:28;5.90;99.90
16980;DHT22;42288;52.182;21.156;2024-02-21T04:59:53;5.80;99.90
16980;DHT22;42288;52.182;21.156;2024-02-21T05:02:19;5.90;99.90
16980;DHT22;42288;52.182;21.156;2024-02-21T05:04:47;5.90;99.90
16980;DHT22;42288;52.182;21.156;2024-02-21T05:07:13;6.00;99.90
16980;DHT22;42288;52.182;21.156;2024-02-21T05:09:39;6.10;99.90
16980;DHT22;42288;52.182;21.156;2024-02-21T05:12:04;6.10;99.90
16980;DHT22;42288;52.182;21.156;2024-02-21T05:14:30;6.10;99.90
16980;DHT22;42288;52.182;21.156;2024-02-21T05:16:55;6.20;99.90
16980;DHT22;42288;52.182;21.156;2024-02-21T05:19:21;6.30;99.90
16980;DHT22;42288;52.182;21.156;2024-02-21T05:21:47;6.30;99.90
16980;DHT22;42288;52.182;21.156;2024-02-21T05:24:12;6.30;99.90
16980;DHT22;42288;52.182;21.156;2024-02-21T05:26:38;6.30;99.90
16980;DHT22;42288;52.182;21.156;2024-02-21T05:29:03;6.40;99.90
16980;DHT22;42288;52.182;21.156;2024-02-21T05:34:17;6.40;99.90
16980;DHT22;42288;52.182;21.156;2024-02-21T05:36:42;6.40;99.90
16980;DHT22;42288;52.182;21.156;2024-02-21T05:39:08;6.40;99.90
16980;DHT22;42288;52.182;21.156;2024-02-21T05:41:33;6.40;99.90
16980;DHT22;42288;52.182;21.156;2024-02-21T05:43:59;6.40;99.90
16980;DHT22;42288;52.182;21.156;2024-02-21T05:46:24;6.40;99.90
16980;DHT22;42288;52.182;21.156;2024-02-21T05:48:50;6.40;99.90
16980;DHT22;42288;52.182;21.156;2024-02-21T05:51:15;6.40;99.90
16980;DHT22;42288;52.182;21.156;2024-02-21T05:53:41;6.50;99.90
16980;DHT22;42288;52.182;21.156;2024-02-21T05:56:13;6.50;99.90
16980;DHT22;42288;52.182;21.156;2024-02-21T05:58:39;6.40;99.90
16980;DHT22;42288;52.182;21.156;2024-02-21T06:01:05;6.50;99.90
16980;DHT22;42288;52.182;21.156;2024-02-21T06:03:35;6.50;99.90
16980;DHT22;42288;52.182;21.156;2024-02-21T06:06:04;6.40;99.90
16980;DHT22;42288;52.182;21.156;2024-02-21T06:08:30;6.40;99.90
16980;DHT22;42288;52.182;21.156;2024-02-21T06:10:56;6.50;99.90
16980;DHT22;42288;52.182;21.156;2024-02-21T06:13:23;6.40;99.90
16980;DHT22;42288;52.182;21.156;2024-02-21T06:15:48;6.50;99.90
16980;DHT22;42288;52.182;21.156;2024-02-21T06:18:18;6.50;99.90
16980;DHT22;42288;52.182;21.156;2024-02-21T06:20:44;6.50;99.90
16980;DHT22;42288;52.182;21.156;2024-02-21T06:23:15;6.60;99.90
16980;DHT22;42288;52.182;21.156;2024-02-21T06:25:41;6.60;99.90
16980;DHT22;42288;52.182;21.156;2024-02-21T06:28:06;6.70;99.90
16980;DHT22;42288;52.182;21.156;2024-02-21T06:30:32;6.80;99.90
16980;DHT22;42288;52.182;21.156;2024-02-21T06:32:57;6.80;99.90
16980;DHT22;42288;52.182;21.156;2024-02-21T06:35:24;6.80;99.90
16980;DHT22;42288;52.182;21.156;2024-02-21T06:37:50;6.80;99.90
16980;DHT22;42288;52.182;21.156;2024-02-21T06:40:21;6.80;99.90
16980;DHT22;42288;52.182;21.156;2024-02-21T06:42:47;6.80;99.90
16980;DHT22;42288;52.182;21.156;2024-02-21T06:45:13;6.80;99.90
16980;DHT22;42288;52.182;21.156;2024-02-21T06:47:39;6.90;99.90
16980;DHT22;42288;52.182;21.156;2024-02-21T06:50:05;6.90;99.90
16980;DHT22;42288;52.182;21.156;2024-02-21T06:52:30;6.90;99.90
16980;DHT22;42288;52.182;21.156;2024-02-21T06:54:56;7.00;99.90
16980;DHT22;42288;52.182;21.156;2024-02-21T06:57:22;7.00;99.90
16980;DHT22;42288;52.182;21.156;2024-02-21T06:59:47;7.10;99.90
16980;DHT22;42288;52.182;21.156;2024-02-21T07:02:14;7.10;99.90
16980;DHT22;42288;52.182;21.156;2024-02-21T07:04:39;7.20;99.90
16980;DHT22;42288;52.182;21.156;2024-02-21T07:07:05;7.20;99.90
16980;DHT22;42288;52.182;21.156;2024-02-21T07:09:31;7.20;99.90
16980;DHT22;42288;52.182;21.156;2024-02-21T07:11:57;7.20;99.90
16980;DHT22;42288;52.182;21.156;2024-02-21T07:14:23;7.30;99.90
16980;DHT22;42288;52.182;21.156;2024-02-21T07:16:49;7.40;99.90
16980;DHT22;42288;52.182;21.156;2024-02-21T07:19:14;7.40;99.90
16980;DHT22;42288;52.182;21.156;2024-02-21T07:21:40;7.50;99.90
16980;DHT22;42288;52.182;21.156;2024-02-21T07:24:07;7.50;99.90
16980;DHT22;42288;52.182;21.156;2024-02-21T07:26:33;7.60;99.90
16980;DHT22;42288;52.182;21.156;2024-02-21T07:28:59;7.50;99.90
16980;DHT22;42288;52.182;21.156;2024-02-21T07:31:24;7.40;99.90
16980;DHT22;42288;52.182;21.156;2024-02-21T07:33:50;7.50;99.90
16980;DHT22;42288;52.182;21.156;2024-02-21T07:36:23;7.60;99.90
16980;DHT22;42288;52.182;21.156;2024-02-21T07:38:49;7.60;99.90
16980;DHT22;42288;52.182;21.156;2024-02-21T07:41:15;7.70;99.90
16980;DHT22;42288;52.182;21.156;2024-02-21T07:43:41;7.70;99.90
16980;DHT22;42288;52.182;21.156;2024-02-21T07:46:06;7.70;99.90
16980;DHT22;42288;52.182;21.156;2024-02-21T07:48:32;7.70;99.90
16980;DHT22;42288;52.182;21.156;2024-02-21T07:50:57;7.60;99.90
16980;DHT22;42288;52.182;21.156;2024-02-21T07:53:23;7.70;99.90
16980;DHT22;42288;52.182;21.156;2024-02-21T07:55:48;7.70;99.90
16980;DHT22;42288;52.182;21.156;2024-02-21T07:58:14;7.70;99.90
16980;DHT22;42288;52.182;21.156;2024-02-21T08:00:39;7.70;99.90
16980;DHT22;42288;52.182;21.156;2024-02-21T08:03:05;7.80;99.90
16980;DHT22;42288;52.182;21.156;2024-02-21T08:05:30;7.90;99.90
16980;DHT22;42288;52.182;21.156;2024-02-21T08:07:59;7.80;99.90
16980;DHT22;42288;52.182;21.156;2024-02-21T08:10:24;7.80;99.90
16980;DHT22;42288;52.182;21.156;2024-02-21T08:12:50;7.90;99.90
16980;DHT22;42288;52.182;21.156;2024-02-21T08:15:15;7.80;99.90
16980;DHT22;42288;52.182;21.156;2024-02-21T08:17:41;7.90;99.90
16980;DHT22;42288;52.182;21.156;2024-02-21T08:20:07;8.10;99.90
16980;DHT22;42288;52.182;21.156;2024-02-21T08:22:33;8.30;99.90
16980;DHT22;42288;52.182;21.156;2024-02-21T08:24:58;8.40;99.90
16980;DHT22;42288;52.182;21.156;2024-02-21T08:27:24;8.40;99.90
16980;DHT22;42288;52.182;21.156;2024-02-21T08:29:50;8.50;99.90
16980;DHT22;42288;52.182;21.156;2024-02-21T08:32:15;8.60;99.90
16980;DHT22;42288;52.182;21.156;2024-02-21T08:34:41;8.60;99.90
16980;DHT22;42288;52.182;21.156;2024-02-21T08:37:06;8.70;99.90
16980;DHT22;42288;52.182;21.156;2024-02-21T08:39:33;8.80;99.90
16980;DHT22;42288;52.182;21.156;2024-02-21T08:41:58;9.00;99.90
16980;DHT22;42288;52.182;21.156;2024-02-21T08:44:24;8.70;99.90
16980;DHT22;42288;52.182;21.156;2024-02-21T08:46:52;8.90;99.90
16980;DHT22;42288;52.182;21.156;2024-02-21T08:49:18;8.90;99.90
16980;DHT22;42288;52.182;21.156;2024-02-21T08:51:43;8.90;99.90
16980;DHT22;42288;52.182;21.156;2024-02-21T08:54:09;8.80;99.90
16980;DHT22;42288;52.182;21.156;2024-02-21T08:56:35;8.90;99.90
16980;DHT22;42288;52.182;21.156;2024-02-21T08:59:01;8.80;99.90
16980;DHT22;42288;52.182;21.156;2024-02-21T09:01:27;8.80;99.90
16980;DHT22;42288;52.182;21.156;2024-02-21T09:03:52;8.70;99.90
16980;DHT22;42288;52.182;21.156;2024-02-21T09:06:19;8.70;99.90
16980;DHT22;42288;52.182;21.156;2024-02-21T09:08:45;8.90;99.90
16980;DHT22;42288;52.182;21.156;2024-02-21T09:11:11;8.90;99.90
16980;DHT22;42288;52.182;21.156;2024-02-21T09:13:37;8.80;99.90
16980;DHT22;42288;52.182;21.156;2024-02-21T09:16:02;9.00;99.90
16980;DHT22;42288;52.182;21.156;2024-02-21T09:18:29;9.20;99.90
16980;DHT22;42288;52.182;21.156;2024-02-21T09:20:54;9.00;99.90
16980;DHT22;42288;52.182;21.156;2024-02-21T09:23:20;9.10;99.90
16980;DHT22;42288;52.182;21.156;2024-02-21T09:25:46;9.40;99.90
16980;DHT22;42288;52.182;21.156;2024-02-21T09:28:12;9.40;99.90
16980;DHT22;42288;52.182;21.156;2024-02-21T09:30:38;9.40;99.90
16980;DHT22;42288;52.182;21.156;2024-02-21T09:33:04;9.50;99.90
16980;DHT22;42288;52.182;21.156;2024-02-21T09:35:30;9.50;99.90
16980;DHT22;42288;52.182;21.156;2024-02-21T09:37:56;9.50;99.90
16980;DHT22;42288;52.182;21.156;2024-02-21T09:40:22;9.40;99.90
16980;DHT22;42288;52.182;21.156;2024-02-21T09:42:48;9.30;99.90
16980;DHT22;42288;52.182;21.156;2024-02-21T09:45:21;9.50;99.90
16980;DHT22;42288;52.182;21.156;2024-02-21T09:48:03;9.50;99.90
16980;DHT22;42288;52.182;21.156;2024-02-21T09:50:34;9.40;99.90
16980;DHT22;42288;52.182;21.156;2024-02-21T09:53:02;9.40;99.90
16980;DHT22;42288;52.182;21.156;2024-02-21T09:55:29;9.30;99.90
16980;DHT22;42288;52.182;21.156;2024-02-21T09:57:58;9.30;99.90
16980;DHT22;42288;52.182;21.156;2024-02-21T10:00:24;9.30;99.90
16980;DHT22;42288;52.182;21.156;2024-02-21T10:02:50;9.40;99.90
16980;DHT22;42288;52.182;21.156;2024-02-21T10:05:16;9.10;99.90
16980;DHT22;42288;52.182;21.156;2024-02-21T10:07:43;9.20;99.90
16980;DHT22;42288;52.182;21.156;2024-02-21T10:10:09;9.30;99.90
16980;DHT22;42288;52.182;21.156;2024-02-21T10:12:35;9.50;99.90
16980;DHT22;42288;52.182;21.156;2024-02-21T10:15:05;9.50;99.90
16980;DHT22;42288;52.182;21.156;2024-02-21T10:17:32;9.40;99.90
16980;DHT22;42288;52.182;21.156;2024-02-21T10:20:11;9.60;99.90
16980;DHT22;42288;52.182;21.156;2024-02-21T10:22:38;9.60;99.90
16980;DHT22;42288;52.182;21.156;2024-02-21T10:25:12;9.60;99.90
16980;DHT22;42288;52.182;21.156;2024-02-21T10:27:38;9.70;99.90
16980;DHT22;42288;52.182;21.156;2024-02-21T10:30:08;9.80;99.90
16980;DHT22;42288;52.182;21.156;2024-02-21T10:32:51;9.80;99.90
16980;DHT22;42288;52.182;21.156;2024-02-21T10:35:28;9.80;99.90
16980;DHT22;42288;52.182;21.156;2024-02-21T10:37:55;9.70;99.90
16980;DHT22;42288;52.182;21.156;2024-02-21T10:40:28;9.80;99.90
16980;DHT22;42288;52.182;21.156;2024-02-21T10:42:59;9.70;99.90
16980;DHT22;42288;52.182;21.156;2024-02-21T10:45:35;9.70;99.90
16980;DHT22;42288;52.182;21.156;2024-02-21T10:48:14;9.80;99.90
16980;DHT22;42288;52.182;21.156;2024-02-21T10:56:06;9.70;99.90
16980;DHT22;42288;52.182;21.156;2024-02-21T10:58:33;9.60;99.90
16980;DHT22;42288;52.182;21.156;2024-02-21T11:00:58;9.60;99.90
16980;DHT22;42288;52.182;21.156;2024-02-21T11:03:24;9.50;99.90
16980;DHT22;42288;52.182;21.156;2024-02-21T11:05:51;9.40;99.90
16980;DHT22;42288;52.182;21.156;2024-02-21T11:08:17;9.50;99.90
16980;DHT22;42288;52.182;21.156;2024-02-21T11:10:46;9.50;99.90
16980;DHT22;42288;52.182;21.156;2024-02-21T11:13:11;9.50;99.90
16980;DHT22;42288;52.182;21.156;2024-02-21T11:15:38;9.40;99.90
16980;DHT22;42288;52.182;21.156;2024-02-21T11:18:04;9.60;99.90
16980;DHT22;42288;52.182;21.156;2024-02-21T11:20:34;9.60;99.90
16980;DHT22;42288;52.182;21.156;2024-02-21T11:23:00;9.60;99.90
16980;DHT22;42288;52.182;21.156;2024-02-21T11:25:29;9.50;99.90
16980;DHT22;42288;52.182;21.156;2024-02-21T11:28:03;9.50;99.90
16980;DHT22;42288;52.182;21.156;2024-02-21T11:30:32;9.50;99.90
16980;DHT22;42288;52.182;21.156;2024-02-21T11:33:02;9.60;99.90
16980;DHT22;42288;52.182;21.156;2024-02-21T11:35:35;9.60;99.90
16980;DHT22;42288;52.182;21.156;2024-02-21T11:38:11;9.60;99.90
16980;DHT22;42288;52.182;21.156;2024-02-21T11:40:45;9.70;99.90
16980;DHT22;42288;52.182;21.156;2024-02-21T11:43:10;9.70;99.90
16980;DHT22;42288;52.182;21.156;2024-02-21T11:45:36;9.60;99.90
16980;DHT22;42288;52.182;21.156;2024-02-21T11:48:02;9.70;99.90
16980;DHT22;42288;52.182;21.156;2024-02-21T11:50:30;9.60;99.90
16980;DHT22;42288;52.182;21.156;2024-02-21T11:52:56;9.50;99.90
16980;DHT22;42288;52.182;21.156;2024-02-21T11:55:22;9.00;99.90
16980;DHT22;42288;52.182;21.156;2024-02-21T11:57:48;8.90;99.90
16980;DHT22;42288;52.182;21.156;2024-02-21T12:00:19;8.80;99.90
16980;DHT22;42288;52.182;21.156;2024-02-21T12:02:49;8.80;99.90
16980;DHT22;42288;52.182;21.156;2024-02-21T12:05:15;8.90;99.90
16980;DHT22;42288;52.182;21.156;2024-02-21T12:07:41;8.90;99.90
16980;DHT22;42288;52.182;21.156;2024-02-21T12:10:11;8.90;99.90
16980;DHT22;42288;52.182;21.156;2024-02-21T12:12:37;8.90;99.90
16980;DHT22;42288;52.182;21.156;2024-02-21T12:15:04;8.70;99.90
16980;DHT22;42288;52.182;21.156;2024-02-21T12:17:32;8.70;99.90
16980;DHT22;42288;52.182;21.156;2024-02-21T12:19:57;8.70;99.90
16980;DHT22;42288;52.182;21.156;2024-02-21T12:22:25;8.60;99.90
16980;DHT22;42288;52.182;21.156;2024-02-21T12:24:50;8.70;99.90
16980;DHT22;42288;52.182;21.156;2024-02-21T12:27:16;8.70;99.90
16980;DHT22;42288;52.182;21.156;2024-02-21T12:29:41;8.70;99.90
16980;DHT22;42288;52.182;21.156;2024-02-21T12:32:07;8.70;99.90
16980;DHT22;42288;52.182;21.156;2024-02-21T12:34:33;8.70;99.90
16980;DHT22;42288;52.182;21.156;2024-02-21T12:36:59;8.70;99.90
16980;DHT22;42288;52.182;21.156;2024-02-21T12:39:24;8.70;99.90
16980;DHT22;42288;52.182;21.156;2024-02-21T12:41:53;8.60;99.90
16980;DHT22;42288;52.182;21.156;2024-02-21T12:44:18;8.60;99.90
16980;DHT22;42288;52.182;21.156;2024-02-21T12:46:44;8.60;99.90
16980;DHT22;42288;52.182;21.156;2024-02-21T12:49:10;8.50;99.90
16980;DHT22;42288;52.182;21.156;2024-02-21T12:51:36;8.60;99.90
16980;DHT22;42288;52.182;21.156;2024-02-21T12:54:03;8.70;99.90
16980;DHT22;42288;52.182;21.156;2024-02-21T12:56:28;8.80;99.90
16980;DHT22;42288;52.182;21.156;2024-02-21T12:58:56;8.60;99.90
16980;DHT22;42288;52.182;21.156;2024-02-21T13:01:22;8.70;99.90
16980;DHT22;42288;52.182;21.156;2024-02-21T13:03:47;8.80;99.90
16980;DHT22;42288;52.182;21.156;2024-02-21T13:06:13;8.70;99.90
16980;DHT22;42288;52.182;21.156;2024-02-21T13:08:39;8.70;99.90
16980;DHT22;42288;52.182;21.156;2024-02-21T13:11:05;8.70;99.90
16980;DHT22;42288;52.182;21.156;2024-02-21T13:13:31;8.70;99.90
16980;DHT22;42288;52.182;21.156;2024-02-21T13:15:58;8.70;99.90
16980;DHT22;42288;52.182;21.156;2024-02-21T13:18:23;8.60;99.90
16980;DHT22;42288;52.182;21.156;2024-02-21T13:20:49;8.70;99.90
16980;DHT22;42288;52.182;21.156;2024-02-21T13:23:14;8.60;99.90
16980;DHT22;42288;52.182;21.156;2024-02-21T13:25:40;8.50;99.90
16980;DHT22;42288;52.182;21.156;2024-02-21T13:28:05;8.50;99.90
16980;DHT22;42288;52.182;21.156;2024-02-21T13:30:32;8.50;99.90
16980;DHT22;42288;52.182;21.156;2024-02-21T13:32:57;8.60;99.90
16980;DHT22;42288;52.182;21.156;2024-02-21T13:35:23;8.60;99.90
16980;DHT22;42288;52.182;21.156;2024-02-21T13:37:49;8.50;99.90
16980;DHT22;42288;52.182;21.156;2024-02-21T13:40:15;8.60;99.90
16980;DHT22;42288;52.182;21.156;2024-02-21T13:42:41;8.50;99.90
16980;DHT22;42288;52.182;21.156;2024-02-21T13:45:08;8.50;99.90
16980;DHT22;42288;52.182;21.156;2024-02-21T13:47:34;8.60;99.90
16980;DHT22;42288;52.182;21.156;2024-02-21T13:50:02;8.60;99.90
16980;DHT22;42288;52.182;21.156;2024-02-21T13:52:30;8.60;99.90
16980;DHT22;42288;52.182;21.156;2024-02-21T13:54:56;8.60;99.90
16980;DHT22;42288;52.182;21.156;2024-02-21T13:57:21;8.60;99.90
16980;DHT22;42288;52.182;21.156;2024-02-21T13:59:47;8.40;99.90
16980;DHT22;42288;52.182;21.156;2024-02-21T14:02:12;8.40;99.90
16980;DHT22;42288;52.182;21.156;2024-02-21T14:04:38;8.50;99.90
16980;DHT22;42288;52.182;21.156;2024-02-21T14:07:04;8.50;99.90
16980;DHT22;42288;52.182;21.156;2024-02-21T14:09:29;8.50;99.90
16980;DHT22;42288;52.182;21.156;2024-02-21T14:11:55;8.50;99.90
16980;DHT22;42288;52.182;21.156;2024-02-21T14:14:21;8.60;99.90
16980;DHT22;42288;52.182;21.156;2024-02-21T14:16:46;8.60;99.90
16980;DHT22;42288;52.182;21.156;2024-02-21T14:19:15;8.60;99.90
16980;DHT22;42288;52.182;21.156;2024-02-21T14:21:40;8.50;99.90
16980;DHT22;42288;52.182;21.156;2024-02-21T14:24:06;8.50;99.90
16980;DHT22;42288;52.182;21.156;2024-02-21T14:26:32;8.60;99.90
16980;DHT22;42288;52.182;21.156;2024-02-21T14:28:58;8.50;99.90
16980;DHT22;42288;52.182;21.156;2024-02-21T14:31:24;8.60;99.90
16980;DHT22;42288;52.182;21.156;2024-02-21T14:33:51;8.70;99.90
16980;DHT22;42288;52.182;21.156;2024-02-21T14:36:16;8.70;99.90
16980;DHT22;42288;52.182;21.156;2024-02-21T14:38:42;8.60;99.90
16980;DHT22;42288;52.182;21.156;2024-02-21T14:41:09;8.70;99.90
16980;DHT22;42288;52.182;21.156;2024-02-21T14:43:35;8.60;99.90
16980;DHT22;42288;52.182;21.156;2024-02-21T14:46:01;8.70;99.90
16980;DHT22;42288;52.182;21.156;2024-02-21T14:48:30;8.60;99.90
16980;DHT22;42288;52.182;21.156;2024-02-21T14:50:55;8.60;99.90
16980;DHT22;42288;52.182;21.156;2024-02-21T14:53:21;8.50;99.90
16980;DHT22;42288;52.182;21.156;2024-02-21T14:55:46;8.50;99.90
16980;DHT22;42288;52.182;21.156;2024-02-21T14:58:12;8.50;99.90
16980;DHT22;42288;52.182;21.156;2024-02-21T15:00:37;8.50;99.90
16980;DHT22;42288;52.182;21.156;2024-02-21T15:03:04;8.50;99.90
16980;DHT22;42288;52.182;21.156;2024-02-21T15:05:29;8.50;99.90
16980;DHT22;42288;52.182;21.156;2024-02-21T15:07:56;8.50;99.90
16980;DHT22;42288;52.182;21.156;2024-02-21T15:10:24;8.60;99.90
16980;DHT22;42288;52.182;21.156;2024-02-21T15:12:50;8.60;99.90
16980;DHT22;42288;52.182;21.156;2024-02-21T15:15:15;8.60;99.90
16980;DHT22;42288;52.182;21.156;2024-02-21T15:17:42;8.40;99.90
16980;DHT22;42288;52.182;21.156;2024-02-21T15:20:08;8.40;99.90
16980;DHT22;42288;52.182;21.156;2024-02-21T15:22:34;8.40;99.90
16980;DHT22;42288;52.182;21.156;2024-02-21T15:25:01;8.30;99.90
16980;DHT22;42288;52.182;21.156;2024-02-21T15:27:26;8.30;99.90
16980;DHT22;42288;52.182;21.156;2024-02-21T15:29:53;8.30;99.90
16980;DHT22;42288;52.182;21.156;2024-02-21T15:32:19;8.30;99.90